Time;durP1;ratioP1;P1;durP2;ratioP2;P2;SDS_P1;SDS_P2;PMS_P1;PMS_P2;Temp;Humidity;BMP_temperature;BMP_pressure;BME280_temperature;BME280_humidity;BME280_pressure;Samples;Min_cycle;Max_cycle;Signal;HPM_P1;HPM_P2
2022/02/10 00:05:57;;;;;;;28.10;10.02;;;;;;;3.07;100.00;98713.78;5003274;28;20242;-58
2022/02/10 00:13:57;;;;;;;29.02;11.48;;;;;;;2.83;100.00;98709.47;4919883;29;20614;-62
2022/02/10 00:21:24;;;;;;;35.97;13.70;;;;;;;2.41;100.00;98703.38;5005353;28;20900;-58
2022/02/10 00:34:34;;;;;;;32.97;12.77;;;;;;;2.38;100.00;98687.91;5004322;28;20579;-59
2022/02/10 00:41:57;;;;;;;32.45;11.70;;;;;;;2.45;100.00;98686.22;5004756;28;20179;-58
2022/02/10 00:44:22;;;;;;;32.97;11.98;;;;;;;2.41;100.00;98690.50;5002910;28;20029;-58
2022/02/10 00:46:48;;;;;;;36.65;13.07;;;;;;;2.37;100.00;98686.19;5003952;28;20080;-59
2022/02/10 00:49:13;;;;;;;30.83;11.55;;;;;;;2.33;100.00;98687.00;5003318;28;20614;-57
2022/02/10 00:51:38;;;;;;;32.92;12.50;;;;;;;2.29;100.00;98682.72;5004335;28;20053;-59
2022/02/10 00:54:04;;;;;;;31.73;12.40;;;;;;;1.99;100.00;98684.31;5003253;28;20136;-58
2022/02/10 00:56:30;;;;;;;33.20;12.80;;;;;;;2.09;100.00;98683.50;5002406;28;20046;-58
2022/02/10 00:59:48;;;;;;;35.38;12.57;;;;;;;2.05;100.00;98681.78;5003824;28;20539;-58
2022/02/10 01:31:14;;;;;;;30.25;11.88;;;;;;;1.87;100.00;98656.81;5007405;28;20049;-58
2022/02/10 01:33:42;;;;;;;30.02;11.02;;;;;;;1.86;100.00;98664.56;5010823;28;20033;-59
2022/02/10 01:36:07;;;;;;;25.27;10.57;;;;;;;1.97;100.00;98655.16;5007972;28;20411;-57
2022/02/10 01:38:32;;;;;;;32.53;11.48;;;;;;;2.05;100.00;98656.03;5005273;28;20505;-57
2022/02/10 02:05:38;;;;;;;31.55;11.02;;;;;;;1.98;100.00;98640.56;5004490;28;20554;-60
2022/02/10 02:08:06;;;;;;;34.63;10.55;;;;;;;2.09;100.00;98632.03;5008134;28;20083;-59
2022/02/10 02:10:32;;;;;;;32.03;10.75;;;;;;;2.14;100.00;98628.63;5005000;28;20115;-59
2022/02/10 02:12:57;;;;;;;30.10;10.75;;;;;;;2.13;100.00;98638.03;5005826;28;20642;-57
2022/02/10 02:15:22;;;;;;;35.63;12.18;;;;;;;1.98;100.00;98628.56;5006384;28;21072;-58
2022/02/10 02:17:48;;;;;;;33.03;11.65;;;;;;;1.95;100.00;98625.13;5006888;28;20112;-59
2022/02/10 02:20:13;;;;;;;31.20;10.98;;;;;;;1.70;100.00;98617.31;5007554;28;20025;-58
2022/02/10 02:22:38;;;;;;;34.45;11.48;;;;;;;1.93;100.00;98620.84;5007492;28;20813;-58
2022/02/10 02:25:04;;;;;;;32.65;11.35;;;;;;;2.10;100.00;98617.47;5005392;28;20036;-58
2022/02/10 02:27:46;;;;;;;38.20;12.57;;;;;;;1.97;100.00;98615.69;5006370;28;20026;-58
2022/02/10 02:30:20;;;;;;;30.33;11.47;;;;;;;1.88;100.00;98606.25;5005295;28;20038;-57
2022/02/10 02:33:05;;;;;;;35.95;11.70;;;;;;;1.74;100.00;98604.47;5004907;28;20215;-57
2022/02/10 03:06:00;;;;;;;32.13;10.88;;;;;;;1.63;100.00;98593.28;5004570;28;20048;-57
2022/02/10 03:08:24;;;;;;;32.38;10.23;;;;;;;1.67;100.00;98600.16;5004933;28;20068;-58
2022/02/10 03:13:29;;;;;;;33.65;10.88;;;;;;;1.76;100.00;98588.19;5007550;28;20025;-57
2022/02/10 03:18:43;;;;;;;30.23;10.65;;;;;;;1.67;100.00;98582.16;5006455;28;20033;-58
2022/02/10 04:00:06;;;;;;;28.23;8.93;;;;;;;1.78;100.00;98564.19;5003858;28;20040;-57
2022/02/10 04:15:51;;;;;;;28.15;9.50;;;;;;;1.54;100.00;98559.81;5004769;28;20034;-57
2022/02/10 04:55:48;;;;;;;22.85;7.88;;;;;;;1.51;100.00;98544.38;5000743;28;20048;-59
2022/02/10 05:12:06;;;;;;;30.13;8.70;;;;;;;1.48;100.00;98539.22;5008742;28;20854;-57
2022/02/10 05:33:18;;;;;;;25.25;8.27;;;;;;;1.47;100.00;98538.38;5009571;28;20037;-59
2022/02/10 05:35:56;;;;;;;19.60;5.60;;;;;;;1.55;100.00;98540.97;5008106;28;20034;-58
2022/02/10 05:38:28;;;;;;;30.83;8.32;;;;;;;1.41;100.00;98537.47;5007451;28;20072;-59
2022/02/10 07:11:43;;;;;;;23.00;9.45;;;;;;;1.40;100.00;98481.75;5009415;28;20497;-58
2022/02/10 07:49:52;;;;;;;26.55;9.88;;;;;;;10.17;100.00;98466.94;5007598;28;20488;-58
2022/02/10 07:58:15;;;;;;;15.13;7.72;;;;;;;13.06;100.00;98467.47;5008877;28;20044;-57
2022/02/10 09:19:16;;;;;;;19.45;7.60;;;;;;;8.55;100.00;98457.69;5007494;28;20034;-60
2022/02/10 09:59:49;;;;;;;17.13;5.40;;;;;;;9.96;100.00;98449.34;5009450;28;20037;-60
2022/02/10 10:02:28;;;;;;;14.48;5.70;;;;;;;10.13;100.00;98431.44;5009743;28;20044;-58
2022/02/10 10:05:15;;;;;;;17.02;6.00;;;;;;;10.14;100.00;98429.69;5012544;28;20060;-57
2022/02/10 10:57:49;;;;;;;14.23;4.70;;;;;;;12.14;100.00;98417.25;5008544;28;20088;-59
2022/02/10 11:00:24;;;;;;;12.80;4.22;;;;;;;12.86;100.00;98422.06;5003074;28;20045;-59
2022/02/10 11:39:12;;;;;;;13.00;4.07;;;;;;;15.19;100.00;98396.00;5008329;28;20040;-58
2022/02/10 14:14:56;;;;;;;10.43;5.00;;;;;;;13.45;100.00;98377.56;5011325;28;20060;-60
2022/02/10 14:17:35;;;;;;;7.97;3.45;;;;;;;13.41;100.00;98382.09;5009276;28;20499;-59
2022/02/10 14:20:13;;;;;;;11.02;4.50;;;;;;;14.18;100.00;98377.56;5009284;28;20026;-58
2022/02/10 14:22:51;;;;;;;8.95;4.22;;;;;;;12.93;100.00;98368.50;5011658;28;20084;-58
2022/02/10 14:28:01;;;;;;;10.30;4.40;;;;;;;12.58;100.00;98374.47;5010315;28;20144;-59
2022/02/10 14:30:28;;;;;;;9.70;3.90;;;;;;;12.74;100.00;98375.50;5008456;28;20090;-58
2022/02/10 14:32:56;;;;;;;9.38;4.03;;;;;;;14.53;100.00;98382.81;5009328;28;20051;-60
2022/02/10 14:35:28;;;;;;;12.95;4.55;;;;;;;12.05;100.00;98383.63;5009448;28;20024;-59
2022/02/10 14:40:58;;;;;;;9.47;4.20;;;;;;;13.76;100.00;98386.59;5009749;28;20030;-57
2022/02/10 15:11:18;;;;;;;10.45;4.22;;;;;;;12.89;100.00;98397.53;4988104;28;20265;-59
2022/02/10 16:17:13;;;;;;;16.63;6.47;;;;;;;10.60;100.00;98402.97;5006405;28;20046;-59
2022/02/10 16:19:41;;;;;;;17.13;6.55;;;;;;;10.55;100.00;98402.25;5008241;28;20590;-59
2022/02/10 16:24:45;;;;;;;15.15;6.72;;;;;;;10.61;100.00;98395.97;5006733;28;20108;-57
2022/02/10 16:27:15;;;;;;;14.40;6.60;;;;;;;10.93;100.00;98394.81;5008230;28;20034;-57
2022/02/10 16:29:40;;;;;;;16.95;6.53;;;;;;;11.27;100.00;98400.59;5006229;28;20045;-59
2022/02/10 16:32:09;;;;;;;16.75;6.68;;;;;;;10.49;100.00;98389.41;5006267;28;20041;-58
2022/02/10 16:34:38;;;;;;;11.90;5.10;;;;;;;11.00;100.00;98390.25;5006432;28;20033;-59
2022/02/10 16:37:06;;;;;;;14.48;6.28;;;;;;;10.19;100.00;98381.69;5008165;28;20030;-58
2022/02/10 16:39:32;;;;;;;10.27;4.50;;;;;;;11.26;100.00;98386.66;5007260;28;20060;-58
2022/02/10 16:41:57;;;;;;;14.65;5.95;;;;;;;11.16;100.00;98380.94;5006513;28;20137;-58
2022/02/10 16:44:22;;;;;;;16.35;6.85;;;;;;;11.07;100.00;98386.50;5005421;28;20087;-59
2022/02/10 16:46:48;;;;;;;13.65;5.28;;;;;;;10.68;100.00;98394.00;5007456;28;20148;-59
2022/02/10 16:49:16;;;;;;;12.55;5.22;;;;;;;11.65;100.00;98393.91;5006391;28;20297;-59
2022/02/10 16:51:44;;;;;;;12.98;5.95;;;;;;;10.95;100.00;98392.16;5009434;28;20530;-57
2022/02/10 16:54:20;;;;;;;17.30;5.68;;;;;;;11.16;100.00;98400.97;5012100;28;20116;-57
2022/02/10 16:57:18;;;;;;;14.45;5.78;;;;;;;10.41;100.00;98391.44;5011175;28;20038;-58
2022/02/10 16:59:53;;;;;;;;;;;;;;;;;;;;;
2022/02/10 17:26:32;;;;;;;14.98;5.88;;;;;;;10.95;100.00;98407.81;5011752;28;20060;-59
2022/02/10 17:29:07;;;;;;;14.93;5.72;;;;;;;10.73;100.00;98412.94;5010132;28;20061;-60
2022/02/10 17:31:45;;;;;;;14.68;6.22;;;;;;;10.30;100.00;98424.81;5010602;28;20030;-60
2022/02/10 17:36:44;;;;;;;16.05;5.75;;;;;;;10.75;100.00;98426.78;5008980;28;20134;-59
2022/02/10 17:42:21;;;;;;;14.02;5.35;;;;;;;10.39;100.00;98424.56;5011953;28;20060;-58
2022/02/10 17:52:45;;;;;;;11.13;4.47;;;;;;;11.11;100.00;98415.97;5007829;28;20037;-59
2022/02/10 17:55:12;;;;;;;9.93;3.72;;;;;;;12.34;100.00;98434.75;5007110;28;20025;-59
2022/02/10 17:57:37;;;;;;;16.63;6.00;;;;;;;10.60;100.00;98420.34;5010235;28;20172;-59
2022/02/10 18:00:06;;;;;;;14.85;6.15;;;;;;;10.38;100.00;98425.44;5009395;28;20026;-59
2022/02/10 18:02:31;;;;;;;16.23;6.15;;;;;;;10.77;100.00;98417.16;5008229;28;20091;-58
2022/02/10 18:05:00;;;;;;;15.45;6.00;;;;;;;10.89;100.00;98424.56;5010442;28;20525;-58
2022/02/10 18:07:25;;;;;;;17.10;6.05;;;;;;;10.54;100.00;98412.75;5008992;28;20069;-63
2022/02/10 18:14:52;;;;;;;15.85;6.32;;;;;;;10.06;100.00;98422.09;5010098;28;20037;-60
2022/02/10 18:17:25;;;;;;;12.30;4.70;;;;;;;10.69;100.00;98413.97;5009980;28;20472;-61
2022/02/10 18:19:57;;;;;;;16.15;6.00;;;;;;;10.22;100.00;98417.25;5009485;28;20025;-60
2022/02/10 19:01:30;;;;;;;12.50;5.30;;;;;;;9.61;100.00;98401.78;5008064;28;20028;-59
2022/02/10 19:08:11;;;;;;;15.50;6.25;;;;;;;9.71;100.00;98410.19;5007351;28;20793;-59
2022/02/10 19:10:44;;;;;;;19.55;6.80;;;;;;;9.31;100.00;98414.84;5005673;28;20038;-58
2022/02/10 19:13:10;;;;;;;19.02;8.30;;;;;;;9.20;100.00;98411.69;5006785;28;20567;-60
2022/02/10 19:15:35;;;;;;;15.30;5.95;;;;;;;9.42;100.00;98410.16;5006901;28;20048;-57
2022/02/10 19:18:04;;;;;;;13.95;5.10;;;;;;;9.92;100.00;98403.44;5009602;28;20030;-61
2022/02/10 19:20:31;;;;;;;17.95;6.10;;;;;;;9.35;100.00;98411.25;5008004;28;20045;-62
2022/02/10 19:22:57;;;;;;;18.02;5.97;;;;;;;10.31;100.00;98414.38;5008162;28;20090;-61
2022/02/10 19:25:22;;;;;;;15.57;5.15;;;;;;;9.83;100.00;98409.78;5016875;28;20782;-64
2022/02/10 19:27:50;;;;;;;24.10;8.18;;;;;;;11.09;100.00;98409.94;5007367;28;20119;-63
2022/02/10 19:30:22;;;;;;;11.65;4.03;;;;;;;12.26;100.00;98423.72;5010027;28;20115;-64
2022/02/10 19:33:09;;;;;;;14.93;6.13;;;;;;;10.72;100.00;98412.09;5009623;28;20083;-64
2022/02/10 19:35:42;;;;;;;14.70;6.03;;;;;;;10.25;100.00;98418.91;5008162;28;20033;-61
2022/02/10 19:38:09;;;;;;;14.55;5.60;;;;;;;9.67;100.00;98414.66;5009460;28;20116;-63
2022/02/10 19:40:37;;;;;;;12.48;5.30;;;;;;;10.22;100.00;98412.88;5008653;28;20545;-63
2022/02/10 19:43:03;;;;;;;16.30;6.05;;;;;;;10.27;100.00;98414.47;5008549;28;20040;-59
2022/02/10 19:45:28;;;;;;;12.50;5.07;;;;;;;10.17;100.00;98411.34;5007254;28;20038;-59
2022/02/10 19:47:54;;;;;;;14.38;6.07;;;;;;;9.94;100.00;98407.69;5008512;28;20030;-59
2022/02/10 19:50:28;;;;;;;14.20;6.00;;;;;;;9.48;100.00;98413.50;5009314;28;20464;-60
2022/02/10 19:52:57;;;;;;;13.55;5.13;;;;;;;10.38;100.00;98408.06;5009826;28;20029;-62
2022/02/10 19:55:24;;;;;;;14.88;5.72;;;;;;;9.98;100.00;98403.25;5006588;28;20050;-62
2022/02/10 19:57:55;;;;;;;12.15;4.82;;;;;;;10.32;100.00;98396.97;5006986;28;20063;-62
2022/02/10 20:00:22;;;;;;;16.20;6.13;;;;;;;9.47;100.00;98402.22;5008065;28;20030;-62
2022/02/10 20:02:48;;;;;;;12.82;5.88;;;;;;;9.86;100.00;98406.25;5007731;28;20426;-61
2022/02/10 20:05:13;;;;;;;13.77;4.88;;;;;;;10.33;100.00;98409.09;5007050;28;20022;-60
2022/02/10 20:07:41;;;;;;;13.35;5.15;;;;;;;10.47;100.00;98416.47;5007477;28;20392;-59
2022/02/10 20:10:08;;;;;;;12.20;5.18;;;;;;;10.05;100.00;98409.97;5006691;28;20140;-60
2022/02/10 20:12:34;;;;;;;13.30;4.90;;;;;;;9.71;100.00;98411.03;5007306;28;20044;-58
2022/02/10 20:14:59;;;;;;;12.50;4.28;;;;;;;9.93;100.00;98423.41;5008807;28;20033;-58
2022/02/10 20:17:25;;;;;;;13.77;5.82;;;;;;;10.08;100.00;98422.91;5006958;28;20064;-57
2022/02/10 20:19:50;;;;;;;13.02;5.60;;;;;;;10.23;100.00;98429.38;5007980;28;20022;-58
2022/02/10 20:22:16;;;;;;;13.85;5.63;;;;;;;10.12;100.00;98421.06;5006426;28;20030;-57
2022/02/10 20:24:42;;;;;;;17.63;6.35;;;;;;;9.21;100.00;98427.28;5007969;28;20017;-58
2022/02/10 20:27:08;;;;;;;16.58;6.78;;;;;;;9.30;100.00;98423.56;5007318;28;20030;-60
2022/02/10 20:29:34;;;;;;;17.58;7.80;;;;;;;9.28;100.00;98427.94;5008392;28;20590;-60
2022/02/10 20:32:00;;;;;;;15.93;6.05;;;;;;;9.43;100.00;98424.91;5006344;28;20113;-58
2022/02/10 20:34:26;;;;;;;18.70;7.20;;;;;;;10.11;100.00;98415.00;5016066;28;20179;-59
2022/02/10 20:36:52;;;;;;;17.13;6.88;;;;;;;9.24;100.00;98426.31;5007543;28;20065;-60
2022/02/10 20:39:25;;;;;;;21.00;7.93;;;;;;;10.14;100.00;98409.66;5007986;28;20453;-64
2022/02/10 20:41:53;;;;;;;14.48;5.78;;;;;;;9.79;100.00;98423.81;5007130;28;20061;-63
2022/02/10 20:44:19;;;;;;;14.10;5.88;;;;;;;10.21;100.00;98421.59;5006285;28;20033;-63
2022/02/10 20:46:49;;;;;;;18.83;6.80;;;;;;;9.81;100.00;98407.28;5005964;28;20409;-58
2022/02/10 20:49:17;;;;;;;18.88;8.13;;;;;;;9.65;100.00;98416.47;5009120;28;20159;-58
2022/02/10 20:51:49;;;;;;;13.35;5.25;;;;;;;10.04;100.00;98408.28;5007612;28;20046;-59
2022/02/10 20:54:15;;;;;;;16.83;6.28;;;;;;;10.15;100.00;98403.56;5005941;28;20037;-59
2022/02/10 20:56:40;;;;;;;17.27;6.80;;;;;;;10.31;100.00;98400.47;5005381;28;20095;-57
2022/02/10 20:59:28;;;;;;;25.73;9.25;;;;;;;9.39;100.00;98405.06;5005985;28;20591;-57
2022/02/10 21:02:18;;;;;;;22.20;7.88;;;;;;;8.98;100.00;98398.44;5005968;28;20049;-58
2022/02/10 21:07:25;;;;;;;15.02;5.22;;;;;;;9.93;100.00;98405.16;5007342;28;20041;-57
2022/02/10 21:12:16;;;;;;;16.65;6.18;;;;;;;8.97;100.00;98402.81;5005452;28;20049;-56
2022/02/10 21:14:43;;;;;;;16.77;6.43;;;;;;;8.62;100.00;98402.03;5007056;28;20026;-57
2022/02/10 21:17:11;;;;;;;17.08;6.82;;;;;;;8.70;100.00;98413.97;5003424;28;20040;-64
2022/02/10 21:19:38;;;;;;;10.95;4.68;;;;;;;9.03;100.00;98407.81;5007125;28;20697;-64
2022/02/10 21:22:09;;;;;;;13.93;6.10;;;;;;;9.27;100.00;98405.41;5004722;28;20049;-62
2022/02/10 21:24:40;;;;;;;17.58;6.45;;;;;;;8.84;100.00;98406.63;5008271;28;20099;-61
2022/02/10 21:29:32;;;;;;;15.73;6.55;;;;;;;8.84;100.00;98404.03;5007299;28;20030;-63
2022/02/10 21:31:58;;;;;;;17.33;6.88;;;;;;;8.61;100.00;98404.66;5006978;28;20050;-64
2022/02/10 21:34:27;;;;;;;14.18;5.25;;;;;;;8.70;100.00;98411.38;5007765;28;20030;-62
2022/02/10 21:53:04;;;;;;;17.13;5.88;;;;;;;8.35;100.00;98406.16;5012041;28;20048;-62
2022/02/10 22:06:44;;;;;;;;;;;;;;;;;;;;;
2022/02/10 22:09:05;;;;;;;18.13;6.38;;;;;;;8.51;100.00;98409.25;5002024;28;20057;-59
2022/02/10 22:11:46;;;;;;;17.00;6.10;;;;;;;8.05;100.00;98385.25;5008412;28;20717;-58
2022/02/10 22:19:35;;;;;;;27.83;7.90;;;;;;;8.78;100.00;98397.25;5009861;28;20060;-58
2022/02/10 22:22:08;;;;;;;31.33;8.05;;;;;;;8.63;100.00;98395.91;5009125;28;20045;-58
2022/02/10 22:24:34;;;;;;;21.02;6.80;;;;;;;8.24;100.00;98384.78;5011414;28;20036;-58
2022/02/10 22:26:59;;;;;;;15.45;5.57;;;;;;;8.60;100.00;98383.00;5008554;28;20033;-58
2022/02/10 22:29:31;;;;;;;18.17;5.82;;;;;;;8.14;100.00;98391.94;5009979;28;20116;-56
2022/02/10 22:32:08;;;;;;;18.27;6.68;;;;;;;8.55;100.00;98387.47;5010355;28;20050;-56
2022/02/10 22:34:39;;;;;;;37.75;9.00;;;;;;;7.83;100.00;98382.31;5009553;28;20450;-58
2022/02/10 22:37:07;;;;;;;31.10;7.45;;;;;;;8.22;100.00;98379.63;5009898;28;20038;-56
2022/02/10 22:39:39;;;;;;;15.02;5.00;;;;;;;8.45;100.00;98389.47;5010395;28;20391;-58
2022/02/10 22:42:05;;;;;;;20.83;6.72;;;;;;;8.55;100.00;98395.28;5009080;28;20042;-57
2022/02/10 22:44:31;;;;;;;26.35;6.57;;;;;;;8.18;100.00;98385.81;5010843;28;20375;-57
2022/02/10 22:46:56;;;;;;;19.67;6.28;;;;;;;8.00;100.00;98386.25;5009103;28;20508;-57
2022/02/10 22:49:22;;;;;;;16.70;6.18;;;;;;;8.02;100.00;98384.47;5009395;28;20032;-58
2022/02/10 22:51:47;;;;;;;16.48;5.88;;;;;;;8.48;100.00;98388.53;5017157;28;20467;-56
2022/02/10 22:54:13;;;;;;;14.88;5.50;;;;;;;8.38;100.00;98376.63;5009341;28;20028;-58
2022/02/10 22:56:41;;;;;;;15.15;6.00;;;;;;;8.05;100.00;98377.47;5009177;28;20103;-58
2022/02/10 22:59:09;;;;;;;17.30;6.03;;;;;;;7.96;100.00;98371.63;5009802;28;20034;-58
2022/02/10 23:01:36;;;;;;;17.75;6.43;;;;;;;8.10;100.00;98370.41;5007029;28;20148;-56
2022/02/10 23:04:02;;;;;;;20.95;7.22;;;;;;;8.17;100.00;98370.25;5006122;28;20069;-56
2022/02/10 23:06:28;;;;;;;17.67;5.75;;;;;;;8.95;100.00;98373.38;5003097;28;20115;-56
2022/02/10 23:08:54;;;;;;;16.98;5.97;;;;;;;8.14;100.00;98368.56;5005367;28;20121;-58
2022/02/10 23:11:27;;;;;;;17.52;5.70;;;;;;;8.38;100.00;98371.41;5002916;28;20614;-56
2022/02/10 23:13:53;;;;;;;22.38;6.82;;;;;;;8.07;100.00;98356.63;5003144;28;20029;-57
2022/02/10 23:16:19;;;;;;;22.40;7.80;;;;;;;7.93;100.00;98362.16;5004436;28;20033;-58
2022/02/10 23:18:47;;;;;;;18.23;6.50;;;;;;;8.07;100.00;98356.63;5005433;28;20033;-57
2022/02/10 23:21:14;;;;;;;23.50;7.18;;;;;;;8.31;100.00;98357.75;5002420;28;20034;-58
2022/02/10 23:23:45;;;;;;;17.77;6.43;;;;;;;8.39;100.00;98353.19;5005264;28;20553;-58
2022/02/10 23:26:13;;;;;;;20.13;6.22;;;;;;;8.15;100.00;98349.50;5003761;28;20042;-56
2022/02/10 23:28:50;;;;;;;20.00;6.22;;;;;;;8.49;100.00;98356.41;5004816;28;20021;-58
2022/02/10 23:31:18;;;;;;;19.17;6.15;;;;;;;8.27;100.00;98349.19;5004992;28;20049;-58
2022/02/10 23:33:49;;;;;;;19.20;6.50;;;;;;;7.99;100.00;98343.81;5005611;28;20128;-57
2022/02/10 23:39:02;;;;;;;18.23;6.65;;;;;;;8.14;100.00;98337.38;5004357;28;20052;-57
2022/02/10 23:43:58;;;;;;;15.48;5.75;;;;;;;7.75;100.00;98340.09;5004774;28;20064;-56
2022/02/10 23:46:23;;;;;;;16.25;5.90;;;;;;;8.28;100.00;98340.47;5003775;28;20092;-57
2022/02/10 23:48:52;;;;;;;17.63;6.13;;;;;;;7.84;100.00;98329.47;5003613;28;20096;-57
2022/02/10 23:51:18;;;;;;;17.60;5.85;;;;;;;8.01;100.00;98325.59;5003269;28;20034;-57
2022/02/10 23:53:44;;;;;;;16.80;5.88;;;;;;;7.98;100.00;98320.50;5003311;28;20026;-57
2022/02/10 23:56:13;;;;;;;14.38;5.07;;;;;;;8.13;100.00;98325.28;5004642;28;20041;-57
2022/02/10 23:59:07;;;;;;;15.73;5.38;;;;;;;8.29;100.00;98321.41;5006773;28;20068;-56
